createdAt,value
2018-07-15T16:31:50.810Z,77.88
2018-07-15T16:32:51.168Z,79.04
2018-07-15T16:33:50.683Z,79.62
2018-07-15T16:34:50.524Z,79.19
2018-07-15T16:35:50.476Z,78.81
2018-07-15T16:36:50.358Z,79.29
2018-07-15T16:37:50.271Z,80.06
2018-07-15T16:38:50.215Z,80.45
2018-07-15T16:39:50.103Z,80.74
2018-07-15T16:40:50.021Z,82.18
2018-07-15T16:41:49.933Z,82.53
2018-07-15T16:42:49.851Z,81.27
2018-07-15T16:43:49.795Z,81.02
2018-07-15T16:44:49.772Z,80.60
2018-07-15T16:45:49.600Z,82.43
2018-07-15T16:46:49.511Z,83.69
2018-07-15T16:47:49.447Z,83.59
2018-07-15T16:48:49.373Z,83.98
2018-07-15T16:49:49.319Z,82.92
2018-07-15T16:50:49.172Z,84.17
2018-07-15T16:51:49.087Z,84.61
2018-07-15T16:52:49.003Z,85.96
2018-07-15T16:53:48.951Z,86.92
2018-07-15T16:54:48.833Z,87.12
2018-07-15T16:55:48.751Z,86.15
2018-07-15T16:56:48.660Z,86.35
2018-07-15T16:57:48.578Z,85.57
2018-07-15T16:58:48.520Z,85.77
2018-07-15T16:59:48.404Z,86.15
2018-07-15T17:00:48.320Z,85.77
2018-07-15T17:01:48.238Z,85.47
2018-07-15T17:02:48.150Z,84.90
2018-07-15T17:07:11.912Z,84.61
2018-07-15T17:07:50.819Z,84.70
2018-07-15T17:08:50.763Z,85.57
2018-07-15T17:09:50.924Z,84.42
2018-07-15T17:10:50.564Z,84.70
2018-07-15T17:11:50.480Z,83.94
2018-07-15T17:12:50.397Z,83.55
2018-07-15T17:13:50.338Z,83.07
2018-07-15T17:14:50.224Z,83.07
2018-07-15T17:15:50.138Z,83.64
2018-07-15T17:16:50.048Z,83.07
2018-07-15T17:17:49.963Z,82.87
2018-07-15T17:18:49.910Z,82.87
2018-07-15T17:19:49.797Z,82.29
2018-07-15T17:20:49.707Z,82.68
2018-07-15T17:21:49.622Z,82.39
2018-07-15T17:22:49.540Z,83.16
2018-07-15T17:23:49.487Z,82.29
2018-07-15T17:24:49.368Z,82.97
2018-07-15T17:25:49.283Z,84.61
2018-07-15T17:26:49.196Z,84.70
2018-07-15T17:27:49.108Z,84.38
2018-07-15T17:28:49.051Z,84.28
2018-07-15T17:29:48.936Z,84.38
2018-07-15T17:30:48.852Z,84.56
2018-07-15T17:31:48.767Z,85.14
2018-07-15T17:32:48.682Z,84.56
2018-07-15T17:33:48.636Z,83.89
2018-07-15T17:34:48.510Z,85.14
2018-07-15T17:35:48.423Z,82.64
2018-07-15T17:36:48.338Z,83.12
2018-07-15T17:37:48.269Z,83.22
2018-07-15T17:38:48.197Z,83.89
2018-07-15T17:39:48.077Z,84.18
2018-07-15T17:40:47.999Z,84.76
2018-07-15T17:41:47.909Z,85.14
2018-07-15T17:42:47.822Z,86.30
2018-07-15T17:43:47.768Z,85.30
2018-07-15T17:44:47.651Z,85.39
2018-07-15T17:45:47.567Z,85.68
2018-07-15T17:46:47.479Z,85.20
2018-07-15T17:47:47.392Z,85.78
2018-07-15T17:48:47.354Z,84.76
2018-07-15T17:49:47.222Z,85.39
2018-07-15T17:50:47.139Z,85.43
2018-07-15T17:51:47.048Z,85.58
2018-07-15T17:52:46.963Z,85.49
2018-07-15T17:53:46.909Z,84.72
2018-07-15T17:54:46.790Z,85.68
2018-07-15T17:55:46.707Z,85.39
2018-07-15T17:56:46.695Z,85.97
2018-07-15T17:57:46.537Z,86.65
2018-07-15T17:58:46.456Z,85.68
2018-07-15T17:59:46.394Z,85.30
2018-07-15T18:00:46.277Z,85.30
2018-07-15T18:01:46.197Z,85.30
2018-07-15T18:02:46.108Z,86.16
2018-07-15T18:03:46.020Z,87.32
2018-07-15T18:04:46.026Z,86.74
2018-07-15T18:05:45.845Z,87.70
2018-07-15T18:06:45.767Z,88.85
2018-07-15T18:07:45.678Z,87.80
2018-07-15T18:08:45.591Z,87.90
2018-07-15T18:09:45.529Z,87.90
2018-07-15T18:10:45.419Z,89.82
2018-07-15T18:11:45.332Z,87.99
2018-07-15T18:12:45.245Z,89.05
2018-07-15T18:13:45.161Z,89.82
2018-07-15T18:14:45.105Z,89.53
2018-07-15T18:15:44.989Z,89.43
2018-07-15T18:16:44.903Z,88.85
2018-07-15T18:17:44.813Z,88.85
2018-07-15T18:18:44.728Z,88.85
2018-07-15T18:19:44.789Z,90.30
2018-07-15T18:20:44.638Z,89.24
2018-07-15T18:21:44.472Z,88.95
2018-07-15T18:22:44.383Z,89.15
2018-07-15T18:23:44.297Z,89.63
2018-07-15T18:24:44.242Z,88.85
2018-07-15T18:25:44.123Z,89.53
2018-07-15T18:26:44.131Z,91.27
2018-07-15T18:27:43.955Z,91.46
2018-07-15T18:28:43.869Z,90.59
2018-07-15T18:29:43.811Z,90.73
2018-07-15T18:30:43.694Z,91.07
2018-07-15T18:31:43.607Z,90.83
2018-07-15T18:32:43.518Z,92.08
2018-07-15T18:33:43.527Z,92.18
2018-07-15T18:34:43.379Z,91.70
2018-07-15T18:35:43.266Z,91.99
2018-07-15T18:36:43.176Z,92.28
2018-07-15T18:37:43.089Z,92.76
2018-07-15T18:38:43.007Z,92.76
2018-07-15T18:39:42.953Z,93.43
2018-07-15T18:40:42.925Z,93.91
2018-07-15T18:41:42.748Z,93.62
2018-07-15T18:42:42.661Z,93.62
2018-07-15T18:43:42.574Z,93.24
2018-07-15T18:44:42.523Z,94.59
2018-07-15T18:45:42.402Z,94.49
2018-07-15T18:46:42.317Z,94.30
2018-07-15T18:47:42.322Z,94.68
2018-07-15T18:48:42.141Z,95.17
2018-07-15T18:49:42.088Z,95.45
2018-07-15T18:50:41.975Z,95.45
2018-07-15T18:51:41.885Z,95.70
2018-07-15T18:52:41.796Z,96.56
2018-07-15T18:53:41.722Z,96.17
2018-07-15T18:54:41.770Z,96.75
2018-07-15T18:55:41.539Z,97.24
2018-07-15T18:56:41.454Z,98.00
2018-07-15T18:57:41.366Z,98.00
2018-07-15T18:58:41.277Z,97.62
2018-07-15T18:59:41.225Z,97.71
2018-07-15T19:00:41.104Z,98.39
2018-07-15T19:01:41.115Z,98.00
2018-07-15T19:02:40.939Z,98.39
2018-07-15T19:03:40.850Z,98.49
2018-07-15T19:04:40.803Z,98.87
2018-07-15T19:05:40.674Z,98.39
2018-07-15T19:06:40.588Z,99.16
2018-07-15T19:07:40.505Z,99.26
2018-07-15T19:08:40.503Z,98.96
2018-07-15T19:09:40.361Z,98.72
2018-07-15T19:10:40.243Z,99.16
2018-07-15T19:11:40.158Z,98.72
2018-07-15T19:12:40.206Z,98.72
2018-07-15T19:13:39.983Z,99.01
2018-07-15T19:14:39.926Z,99.99
2018-07-15T19:15:39.917Z,99.99
2018-07-15T19:16:39.722Z,99.99
2018-07-15T19:17:39.635Z,99.99
2018-07-15T19:18:39.554Z,99.99
2018-07-15T19:19:39.465Z,99.99
2018-07-15T19:20:39.411Z,99.99
2018-07-15T19:21:39.292Z,99.99
2018-07-15T19:22:39.296Z,99.99
2018-07-15T19:23:39.117Z,99.99
2018-07-15T19:24:39.160Z,99.99
2018-07-15T19:25:38.947Z,99.99
2018-07-15T19:26:38.859Z,99.99
2018-07-15T19:27:38.773Z,99.99
2018-07-15T19:28:38.690Z,99.99
2018-07-15T19:29:38.691Z,99.99
2018-07-15T19:30:38.543Z,99.99
2018-07-15T19:31:38.436Z,99.99
2018-07-15T19:32:38.336Z,99.99
2018-07-15T19:33:38.271Z,99.99
2018-07-15T19:34:38.166Z,99.99
2018-07-15T19:35:38.107Z,99.99
2018-07-15T19:36:38.097Z,99.99
2018-07-15T19:37:37.905Z,99.99
2018-07-15T19:38:37.820Z,99.99
2018-07-15T19:39:37.735Z,99.99
2018-07-15T19:40:37.677Z,99.99
2018-07-15T19:41:37.554Z,99.99
2018-07-15T19:42:37.470Z,99.99
2018-07-15T19:43:37.476Z,99.99
2018-07-15T19:44:37.304Z,99.99
2018-07-15T19:45:37.242Z,99.99
2018-07-15T19:46:37.121Z,99.99
2018-07-15T19:47:37.038Z,99.99
2018-07-15T19:48:36.947Z,99.99
2018-07-15T19:49:36.864Z,99.99
2018-07-15T19:50:36.809Z,99.99
2018-07-15T19:51:36.689Z,99.99
2018-07-15T19:52:36.711Z,99.99
2018-07-15T19:53:36.514Z,99.99
2018-07-15T19:54:36.431Z,99.99
2018-07-15T19:55:36.372Z,99.99
2018-07-15T19:56:36.257Z,99.99
2018-07-15T19:57:36.256Z,99.99
2018-07-15T19:58:36.096Z,99.99
2018-07-15T19:59:35.994Z,99.99
2018-07-15T20:00:35.936Z,99.99
2018-07-15T20:01:35.819Z,99.99
2018-07-15T20:02:35.733Z,99.99
2018-07-15T20:03:35.649Z,99.99
2018-07-15T20:04:35.558Z,99.99
2018-07-15T20:05:35.504Z,99.99
2018-07-15T20:06:35.388Z,99.99
2018-07-15T20:07:35.299Z,99.99
2018-07-15T20:08:35.219Z,99.99
2018-07-15T20:09:35.142Z,99.99
2018-07-15T20:10:35.067Z,99.99
2018-07-15T20:11:34.950Z,99.99
2018-07-15T20:12:34.861Z,99.99
2018-07-15T20:13:34.778Z,99.99
2018-07-15T20:14:34.688Z,99.99
2018-07-15T20:15:34.635Z,99.99
2018-07-15T20:16:34.510Z,99.99
2018-07-15T20:17:34.426Z,99.99
2018-07-15T20:18:34.341Z,99.99
2018-07-15T20:19:34.251Z,99.99
2018-07-15T20:20:34.198Z,99.99
2018-07-15T20:21:34.076Z,99.99
2018-07-15T20:22:33.996Z,99.99
2018-07-15T20:23:33.902Z,99.99
2018-07-15T20:24:33.815Z,99.99
2018-07-15T20:25:33.763Z,99.99
2018-07-15T20:26:33.643Z,99.99
2018-07-15T20:27:33.599Z,99.99
2018-07-15T20:28:33.465Z,99.99
2018-07-15T20:29:33.379Z,99.99
2018-07-15T20:30:33.323Z,99.99
2018-07-15T20:31:33.206Z,99.99
2018-07-15T20:32:33.121Z,99.99
2018-07-15T20:33:33.032Z,99.99
2018-07-15T20:34:32.949Z,99.99
2018-07-15T20:35:32.886Z,99.99
2018-07-15T20:36:32.770Z,99.99
2018-07-15T20:37:32.679Z,99.99
2018-07-15T20:38:32.594Z,99.99
2018-07-15T20:39:32.508Z,99.99
2018-07-15T20:40:32.453Z,99.99
2018-07-15T20:41:32.332Z,99.99
2018-07-15T20:42:32.246Z,99.99
2018-07-15T20:43:32.158Z,99.99
2018-07-15T20:44:32.071Z,99.99
2018-07-15T20:45:32.012Z,99.99
2018-07-15T20:46:31.895Z,99.99
2018-07-15T20:47:31.807Z,99.99
2018-07-15T20:48:31.718Z,99.99
2018-07-15T20:49:31.632Z,99.99
2018-07-15T20:50:31.638Z,99.99
2018-07-15T20:51:31.459Z,99.99
2018-07-15T20:52:31.386Z,99.99
2018-07-15T20:53:31.283Z,99.99
2018-07-15T20:54:31.196Z,99.99
2018-07-15T20:55:31.142Z,99.99
2018-07-15T20:56:31.025Z,99.99
2018-07-15T20:57:30.933Z,99.99
2018-07-15T20:58:30.847Z,99.99
2018-07-15T20:59:30.760Z,99.99
2018-07-15T21:00:30.675Z,99.99
2018-07-15T21:01:30.614Z,99.99
2018-07-15T21:02:30.519Z,99.99
2018-07-15T21:03:30.408Z,99.99
2018-07-15T21:04:30.318Z,99.99
2018-07-15T21:05:30.237Z,99.99
2018-07-15T21:06:30.178Z,99.99
2018-07-15T21:07:30.060Z,99.99
2018-07-15T21:08:29.974Z,99.99
2018-07-15T21:09:29.882Z,99.99
2018-07-15T21:10:29.798Z,99.99
2018-07-15T21:11:29.742Z,99.99
2018-07-15T21:12:29.621Z,99.99
2018-07-15T21:13:29.533Z,99.99
2018-07-15T21:14:29.465Z,99.99
2018-07-15T21:15:29.364Z,99.99
2018-07-15T21:16:29.304Z,99.99
2018-07-15T21:17:29.184Z,99.99
2018-07-15T21:18:29.094Z,99.99
2018-07-15T21:19:29.009Z,99.99
2018-07-15T21:20:29.011Z,99.99
2018-07-15T21:21:28.868Z,99.99
2018-07-15T21:22:28.745Z,99.99
2018-07-15T21:23:28.658Z,99.99
2018-07-15T21:24:28.573Z,99.99
2018-07-15T21:25:28.480Z,99.99
2018-07-15T21:26:28.426Z,99.99
2018-07-15T21:27:28.395Z,99.99
2018-07-15T21:28:28.221Z,99.99
2018-07-15T21:29:28.131Z,99.99
2018-07-15T21:30:28.041Z,99.99
2018-07-15T21:31:28.028Z,99.99
2018-07-15T21:32:27.870Z,99.99
2018-07-15T21:33:27.779Z,99.99
2018-07-15T21:34:27.781Z,99.99
2018-07-15T21:35:27.606Z,99.99
2018-07-15T21:36:27.547Z,99.99
2018-07-15T21:37:27.426Z,99.99
2018-07-15T21:38:27.342Z,99.99
2018-07-15T21:39:27.253Z,99.99
2018-07-15T21:40:27.166Z,99.99
2018-07-15T21:41:27.199Z,99.99
2018-07-15T21:42:26.990Z,99.99
2018-07-15T21:43:26.901Z,99.99
2018-07-15T21:44:26.896Z,99.99
2018-07-15T21:45:26.728Z,99.99
2018-07-15T21:46:26.670Z,99.99
2018-07-15T21:47:26.551Z,99.99
2018-07-15T21:48:26.553Z,99.99
2018-07-15T21:49:26.374Z,99.99
2018-07-15T21:50:26.287Z,99.99
2018-07-15T21:51:26.233Z,99.99
2018-07-15T21:52:26.113Z,99.99
2018-07-15T21:53:26.025Z,99.99
2018-07-15T21:54:25.934Z,99.99
2018-07-15T21:55:25.937Z,99.99
2018-07-15T21:56:25.794Z,99.99
2018-07-15T21:57:25.673Z,99.99
2018-07-15T21:58:25.585Z,99.99
2018-07-15T21:59:25.497Z,99.99
2018-07-15T22:00:25.408Z,99.99
2018-07-15T22:01:25.348Z,99.99
2018-07-15T22:02:25.325Z,99.99
2018-07-15T22:03:25.144Z,99.99
2018-07-15T22:04:25.057Z,99.99
2018-07-15T22:05:24.973Z,99.99
2018-07-15T22:06:24.914Z,99.99
2018-07-15T22:07:24.794Z,99.99
2018-07-15T22:08:24.706Z,99.99
2018-07-15T22:09:24.709Z,99.99
2018-07-15T22:10:24.530Z,99.99
2018-07-15T22:11:24.476Z,99.99
2018-07-15T22:12:24.355Z,99.99
2018-07-15T22:13:24.267Z,99.99
2018-07-15T22:14:24.177Z,99.99
2018-07-15T22:15:24.089Z,99.99
2018-07-15T22:16:24.121Z,99.99
2018-07-15T22:17:23.914Z,99.99
2018-07-15T22:18:23.842Z,99.99
2018-07-15T22:19:23.743Z,99.99
2018-07-15T22:20:23.649Z,99.99
2018-07-15T22:21:23.562Z,99.99
2018-07-15T22:22:23.506Z,99.99
2018-07-15T22:23:23.386Z,99.99
2018-07-15T22:24:23.298Z,99.99
2018-07-15T22:25:23.212Z,99.99
2018-07-15T22:26:23.158Z,99.99
2018-07-15T22:27:23.035Z,99.99
2018-07-15T22:28:22.946Z,99.99
2018-07-15T22:29:22.870Z,99.99
2018-07-15T22:30:22.769Z,99.99
2018-07-15T22:31:22.685Z,99.99
2018-07-15T22:32:22.628Z,99.99
2018-07-15T22:33:22.505Z,99.99
2018-07-15T22:34:22.417Z,99.99
2018-07-15T22:35:22.330Z,99.99
2018-07-15T22:36:22.245Z,99.99
2018-07-15T22:37:22.185Z,99.99
2018-07-15T22:38:22.069Z,99.99
2018-07-15T22:39:21.979Z,99.99
2018-07-15T22:40:21.887Z,99.99
2018-07-15T22:41:21.804Z,99.99
2018-07-15T22:42:21.745Z,99.99
2018-07-15T22:43:21.627Z,99.99
2018-07-15T22:44:21.537Z,99.99
2018-07-15T22:45:21.448Z,99.99
2018-07-15T22:46:21.365Z,99.99
2018-07-15T22:47:21.308Z,99.99
2018-07-15T22:48:21.188Z,99.99
2018-07-15T22:49:21.100Z,99.99
2018-07-15T22:50:21.016Z,99.99
2018-07-15T22:51:20.921Z,99.99
2018-07-15T22:52:20.863Z,99.99
2018-07-15T22:53:20.751Z,99.99
2018-07-15T22:54:20.657Z,99.99
2018-07-15T22:55:20.617Z,99.99
2018-07-15T22:56:20.484Z,99.99
2018-07-15T22:57:20.429Z,99.99
2018-07-15T22:58:20.303Z,99.99
2018-07-15T22:59:20.312Z,99.99
2018-07-15T23:00:20.125Z,99.99
2018-07-15T23:01:20.046Z,99.99
2018-07-15T23:02:19.981Z,99.99
2018-07-15T23:03:19.864Z,99.99
2018-07-15T23:04:19.775Z,99.99
2018-07-15T23:05:19.688Z,99.99
2018-07-15T23:06:19.597Z,99.99
2018-07-15T23:07:19.540Z,99.99
2018-07-15T23:08:19.420Z,99.99
2018-07-15T23:09:19.338Z,99.99
2018-07-15T23:10:19.246Z,99.99
2018-07-15T23:11:19.160Z,99.99
2018-07-15T23:12:19.102Z,99.99
2018-07-15T23:13:19.074Z,99.99
2018-07-15T23:14:18.895Z,99.99
2018-07-15T23:15:18.806Z,99.99
2018-07-15T23:16:18.716Z,99.99
2018-07-15T23:17:18.659Z,99.99
2018-07-15T23:18:18.545Z,99.99
2018-07-15T23:19:18.453Z,99.99
2018-07-15T23:20:18.366Z,99.99
2018-07-15T23:21:18.272Z,99.99
2018-07-15T23:22:18.220Z,99.99
2018-07-15T23:23:18.100Z,99.99
2018-07-15T23:24:18.008Z,99.99
2018-07-15T23:25:17.922Z,99.99
2018-07-15T23:26:17.835Z,99.99
2018-07-15T23:27:17.775Z,99.99
2018-07-15T23:28:17.656Z,99.99
2018-07-15T23:29:17.568Z,99.99
2018-07-15T23:30:17.481Z,99.99
2018-07-15T23:31:17.390Z,99.99
2018-07-15T23:32:17.336Z,99.99
2018-07-15T23:33:17.212Z,99.99
2018-07-15T23:34:17.129Z,99.99
2018-07-15T23:35:17.039Z,99.99
2018-07-15T23:36:16.950Z,99.99
2018-07-15T23:37:16.892Z,99.99
2018-07-15T23:38:16.773Z,99.99
2018-07-15T23:39:16.687Z,99.99
2018-07-15T23:40:16.599Z,99.99
2018-07-15T23:41:16.509Z,99.99
2018-07-15T23:42:16.447Z,99.99
2018-07-15T23:43:16.331Z,99.99
2018-07-15T23:44:16.244Z,99.99
2018-07-15T23:45:16.155Z,99.99
2018-07-15T23:46:16.068Z,99.99
2018-07-15T23:47:16.017Z,99.99
2018-07-15T23:48:15.890Z,99.99
2018-07-15T23:49:15.800Z,99.99
2018-07-15T23:50:15.715Z,99.99
2018-07-15T23:51:15.622Z,99.99
2018-07-15T23:52:15.565Z,99.99
2018-07-15T23:53:15.448Z,99.99
2018-07-15T23:54:15.359Z,99.99
2018-07-15T23:55:15.273Z,99.99
2018-07-15T23:56:15.179Z,99.99
2018-07-15T23:57:15.126Z,99.99
2018-07-15T23:58:15.001Z,99.99
2018-07-15T23:59:14.915Z,99.99
